SYZ weather

Shiraz Shahid Dastghaib International Airport
Shiraz, Fars Province, Iran

Public forecast

Using degrees Celsius for public forecast. Weather courtesy of forecast.io.

Current aviation weather report (METAR) for Shiraz Shahid Dastghaib International Airport

Retrieved 2020/08/03 15:00 UTC (18 minutes ago):

OISS 031500Z 26012KT 7000 FEW040 35/07 Q1005 A2970

Aviation forecast (TAF) for Shiraz Shahid Dastghaib International Airport

Retrieved 2020/08/03 12:24 UTC (3 hours ago):

TAF OISS 031110Z 0312/0418 20008KT 7000 FEW040 TEMPO 0312/0316 26016KT FEW035TCU SCT040 SCT100 TEMPO 0409/0416 26016KT FEW035CB SCT040 SCT100